sensor_id;sensor_type;location;lat;lon;timestamp;pressure;altitude;pressure_sealevel;temperature;humidity
72262;BME280;60173;52.112;8.648;2023-04-07T00:02:10;100549.03;;;7.35;77.80
72262;BME280;60173;52.112;8.648;2023-04-07T00:04:36;100552.56;;;7.31;78.08
72262;BME280;60173;52.112;8.648;2023-04-07T00:07:03;100544.50;;;7.15;78.88
72262;BME280;60173;52.112;8.648;2023-04-07T00:09:29;100540.69;;;7.16;78.33
72262;BME280;60173;52.112;8.648;2023-04-07T00:11:55;100544.50;;;7.15;78.65
72262;BME280;60173;52.112;8.648;2023-04-07T00:14:22;100547.16;;;7.36;76.77
72262;BME280;60173;52.112;8.648;2023-04-07T00:16:48;100545.00;;;7.17;77.65
72262;BME280;60173;52.112;8.648;2023-04-07T00:19:14;100537.44;;;7.14;78.06
72262;BME280;60173;52.112;8.648;2023-04-07T00:21:41;100540.44;;;7.18;77.22
72262;BME280;60173;52.112;8.648;2023-04-07T00:24:07;100543.94;;;7.23;77.43
72262;BME280;60173;52.112;8.648;2023-04-07T00:26:33;100535.84;;;7.23;77.03
72262;BME280;60173;52.112;8.648;2023-04-07T00:29:00;100538.28;;;7.15;77.73
72262;BME280;60173;52.112;8.648;2023-04-07T00:31:26;100533.94;;;7.29;77.13
72262;BME280;60173;52.112;8.648;2023-04-07T00:33:53;100527.69;;;7.29;77.08
72262;BME280;60173;52.112;8.648;2023-04-07T00:36:19;100534.50;;;7.16;77.91
72262;BME280;60173;52.112;8.648;2023-04-07T00:38:46;100526.69;;;7.04;78.35
72262;BME280;60173;52.112;8.648;2023-04-07T00:41:12;100533.69;;;7.05;78.79
72262;BME280;60173;52.112;8.648;2023-04-07T00:43:39;100524.22;;;7.13;78.72
72262;BME280;60173;52.112;8.648;2023-04-07T00:46:05;100532.59;;;7.21;78.68
72262;BME280;60173;52.112;8.648;2023-04-07T00:48:32;100527.19;;;7.16;78.83
72262;BME280;60173;52.112;8.648;2023-04-07T00:50:58;100523.97;;;7.09;78.75
72262;BME280;60173;52.112;8.648;2023-04-07T00:53:25;100526.69;;;6.99;80.06
72262;BME280;60173;52.112;8.648;2023-04-07T00:55:51;100524.78;;;6.99;80.09
72262;BME280;60173;52.112;8.648;2023-04-07T00:58:17;100526.41;;;7.00;79.78
72262;BME280;60173;52.112;8.648;2023-04-07T01:01:03;100516.69;;;7.05;79.59
72262;BME280;60173;52.112;8.648;2023-04-07T01:03:44;100517.47;;;7.05;78.94
72262;BME280;60173;52.112;8.648;2023-04-07T01:06:14;100518.84;;;7.08;78.68
72262;BME280;60173;52.112;8.648;2023-04-07T01:08:50;100515.31;;;7.12;78.54
72262;BME280;60173;52.112;8.648;2023-04-07T01:11:24;100508.28;;;7.27;77.25
72262;BME280;60173;52.112;8.648;2023-04-07T01:13:51;100509.88;;;7.17;77.90
72262;BME280;60173;52.112;8.648;2023-04-07T01:16:27;100510.44;;;7.14;78.10
72262;BME280;60173;52.112;8.648;2023-04-07T01:19:00;100508.84;;;7.13;77.53
72262;BME280;60173;52.112;8.648;2023-04-07T01:21:32;100508.56;;;7.10;77.41
72262;BME280;60173;52.112;8.648;2023-04-07T01:24:37;100513.72;;;7.01;77.67
72262;BME280;60173;52.112;8.648;2023-04-07T01:27:20;100505.56;;;7.16;76.54
72262;BME280;60173;52.112;8.648;2023-04-07T01:29:51;100505.88;;;7.05;77.02
72262;BME280;60173;52.112;8.648;2023-04-07T01:32:19;100504.78;;;7.06;76.75
72262;BME280;60173;52.112;8.648;2023-04-07T01:34:47;100501.28;;;7.10;76.91
72262;BME280;60173;52.112;8.648;2023-04-07T01:37:15;100502.13;;;7.00;77.88
72262;BME280;60173;52.112;8.648;2023-04-07T01:39:42;100493.72;;;6.97;78.14
72262;BME280;60173;52.112;8.648;2023-04-07T01:42:09;100500.78;;;6.98;77.92
72262;BME280;60173;52.112;8.648;2023-04-07T01:44:37;100502.63;;;7.02;78.09
72262;BME280;60173;52.112;8.648;2023-04-07T01:47:04;100515.31;;;7.07;78.12
72262;BME280;60173;52.112;8.648;2023-04-07T01:49:32;100505.31;;;7.08;78.41
72262;BME280;60173;52.112;8.648;2023-04-07T01:51:59;100501.88;;;6.92;79.20
72262;BME280;60173;52.112;8.648;2023-04-07T01:54:25;100505.06;;;6.94;79.95
72262;BME280;60173;52.112;8.648;2023-04-07T01:56:52;100500.22;;;6.91;79.65
72262;BME280;60173;52.112;8.648;2023-04-07T01:59:18;100504.31;;;6.83;80.76
72262;BME280;60173;52.112;8.648;2023-04-07T02:01:45;100494.81;;;6.91;78.52
72262;BME280;60173;52.112;8.648;2023-04-07T02:04:28;100504.00;;;6.95;78.39
72262;BME280;60173;52.112;8.648;2023-04-07T02:07:00;100501.06;;;6.76;80.43
72262;BME280;60173;52.112;8.648;2023-04-07T02:09:30;100503.50;;;6.72;81.50
72262;BME280;60173;52.112;8.648;2023-04-07T02:11:59;100499.72;;;6.78;82.20
72262;BME280;60173;52.112;8.648;2023-04-07T02:14:26;100494.84;;;6.70;82.52
72262;BME280;60173;52.112;8.648;2023-04-07T02:16:53;100492.16;;;6.65;82.44
72262;BME280;60173;52.112;8.648;2023-04-07T02:19:21;100497.03;;;6.58;83.37
72262;BME280;60173;52.112;8.648;2023-04-07T02:21:49;100498.09;;;6.62;83.69
72262;BME280;60173;52.112;8.648;2023-04-07T02:24:19;100493.25;;;6.64;84.14
72262;BME280;60173;52.112;8.648;2023-04-07T02:26:45;100493.78;;;6.56;84.89
72262;BME280;60173;52.112;8.648;2023-04-07T02:29:12;100484.88;;;6.55;84.07
72262;BME280;60173;52.112;8.648;2023-04-07T02:31:38;100494.31;;;6.53;84.19
72262;BME280;60173;52.112;8.648;2023-04-07T02:34:05;100483.53;;;6.58;84.29
72262;BME280;60173;52.112;8.648;2023-04-07T02:36:31;100499.72;;;6.48;85.22
72262;BME280;60173;52.112;8.648;2023-04-07T02:38:57;100498.09;;;6.52;85.66
72262;BME280;60173;52.112;8.648;2023-04-07T02:41:24;100498.09;;;6.37;86.26
72262;BME280;60173;52.112;8.648;2023-04-07T02:43:50;100496.22;;;6.42;86.39
72262;BME280;60173;52.112;8.648;2023-04-07T02:46:16;100496.19;;;6.47;86.16
72262;BME280;60173;52.112;8.648;2023-04-07T02:48:43;100498.63;;;6.39;86.56
72262;BME280;60173;52.112;8.648;2023-04-07T02:51:09;100498.38;;;6.45;86.32
72262;BME280;60173;52.112;8.648;2023-04-07T02:53:35;100497.56;;;6.34;86.55
72262;BME280;60173;52.112;8.648;2023-04-07T02:56:02;100499.72;;;6.32;87.27
72262;BME280;60173;52.112;8.648;2023-04-07T02:58:28;100496.72;;;6.24;87.70
72262;BME280;60173;52.112;8.648;2023-04-07T03:00:55;100500.25;;;6.19;88.60
72262;BME280;60173;52.112;8.648;2023-04-07T03:03:21;100498.63;;;6.23;88.37
72262;BME280;60173;52.112;8.648;2023-04-07T03:05:48;100503.50;;;6.37;87.65
72262;BME280;60173;52.112;8.648;2023-04-07T03:08:14;100491.09;;;6.25;87.91
72262;BME280;60173;52.112;8.648;2023-04-07T03:10:40;100500.75;;;6.16;88.84
72262;BME280;60173;52.112;8.648;2023-04-07T03:13:07;100493.78;;;6.25;89.37
72262;BME280;60173;52.112;8.648;2023-04-07T03:15:33;100501.03;;;6.30;89.10
72262;BME280;60173;52.112;8.648;2023-04-07T03:18:00;100495.38;;;6.11;89.58
72262;BME280;60173;52.112;8.648;2023-04-07T03:20:26;100493.22;;;6.18;89.13
72262;BME280;60173;52.112;8.648;2023-04-07T03:22:52;100491.34;;;6.24;89.53
72262;BME280;60173;52.112;8.648;2023-04-07T03:25:19;100495.34;;;6.16;89.84
72262;BME280;60173;52.112;8.648;2023-04-07T03:27:45;100491.59;;;6.17;89.81
72262;BME280;60173;52.112;8.648;2023-04-07T03:30:11;100492.94;;;6.15;90.24
72262;BME280;60173;52.112;8.648;2023-04-07T03:32:38;100495.91;;;6.08;90.60
72262;BME280;60173;52.112;8.648;2023-04-07T03:35:04;100495.38;;;6.11;90.64
72262;BME280;60173;52.112;8.648;2023-04-07T03:37:31;100492.66;;;6.06;91.32
72262;BME280;60173;52.112;8.648;2023-04-07T03:39:57;100495.34;;;6.06;91.36
72262;BME280;60173;52.112;8.648;2023-04-07T03:42:23;100490.47;;;5.98;91.53
72262;BME280;60173;52.112;8.648;2023-04-07T03:44:50;100492.94;;;5.99;91.34
72262;BME280;60173;52.112;8.648;2023-04-07T03:47:16;100492.69;;;6.11;91.38
72262;BME280;60173;52.112;8.648;2023-04-07T03:49:43;100497.22;;;6.00;91.77
72262;BME280;60173;52.112;8.648;2023-04-07T03:52:09;100494.47;;;5.90;92.69
72262;BME280;60173;52.112;8.648;2023-04-07T03:54:35;100500.69;;;5.91;92.63
72262;BME280;60173;52.112;8.648;2023-04-07T03:57:02;100494.53;;;5.95;93.38
72262;BME280;60173;52.112;8.648;2023-04-07T03:59:28;100498.56;;;5.98;92.57
72262;BME280;60173;52.112;8.648;2023-04-07T04:01:54;100502.28;;;5.86;93.35
72262;BME280;60173;52.112;8.648;2023-04-07T04:04:21;100496.88;;;5.86;93.70
72262;BME280;60173;52.112;8.648;2023-04-07T04:06:47;100506.03;;;5.75;94.26
72262;BME280;60173;52.112;8.648;2023-04-07T04:09:14;100501.44;;;5.71;94.88
72262;BME280;60173;52.112;8.648;2023-04-07T04:11:40;100509.28;;;5.77;94.76
72262;BME280;60173;52.112;8.648;2023-04-07T04:14:06;100508.19;;;5.78;94.60
72262;BME280;60173;52.112;8.648;2023-04-07T04:16:33;100501.41;;;5.65;94.81
72262;BME280;60173;52.112;8.648;2023-04-07T04:19:00;100514.63;;;5.67;94.99
72262;BME280;60173;52.112;8.648;2023-04-07T04:21:26;100509.25;;;5.67;95.02
72262;BME280;60173;52.112;8.648;2023-04-07T04:23:53;100509.75;;;5.64;94.97
72262;BME280;60173;52.112;8.648;2023-04-07T04:26:19;100512.25;;;5.76;94.79
72262;BME280;60173;52.112;8.648;2023-04-07T04:28:46;100509.53;;;5.81;94.41
72262;BME280;60173;52.112;8.648;2023-04-07T04:31:12;100516.00;;;5.80;93.96
72262;BME280;60173;52.112;8.648;2023-04-07T04:33:38;100505.22;;;5.75;94.15
72262;BME280;60173;52.112;8.648;2023-04-07T04:36:05;100513.56;;;5.73;94.33
72262;BME280;60173;52.112;8.648;2023-04-07T04:38:31;100517.09;;;5.79;94.01
72262;BME280;60173;52.112;8.648;2023-04-07T04:40:58;100514.63;;;5.72;94.18
72262;BME280;60173;52.112;8.648;2023-04-07T04:43:24;100514.63;;;5.67;94.66
72262;BME280;60173;52.112;8.648;2023-04-07T04:45:51;100519.50;;;5.70;94.98
72262;BME280;60173;52.112;8.648;2023-04-07T04:48:17;100518.94;;;5.68;95.36
72262;BME280;60173;52.112;8.648;2023-04-07T04:50:43;100526.44;;;5.61;95.93
72262;BME280;60173;52.112;8.648;2023-04-07T04:53:09;100535.09;;;5.63;96.01
72262;BME280;60173;52.112;8.648;2023-04-07T04:55:36;100529.16;;;5.66;96.00
72262;BME280;60173;52.112;8.648;2023-04-07T04:58:02;100522.75;;;5.77;95.72
72262;BME280;60173;52.112;8.648;2023-04-07T05:00:28;100524.38;;;5.83;95.47
72262;BME280;60173;52.112;8.648;2023-04-07T05:02:55;100521.97;;;5.82;95.02
72262;BME280;60173;52.112;8.648;2023-04-07T05:05:21;100524.91;;;5.80;94.71
72262;BME280;60173;52.112;8.648;2023-04-07T05:07:48;100529.50;;;5.90;94.71
72262;BME280;60173;52.112;8.648;2023-04-07T05:10:14;100537.41;;;5.97;94.49
72262;BME280;60173;52.112;8.648;2023-04-07T05:12:41;100529.31;;;5.97;94.34
72262;BME280;60173;52.112;8.648;2023-04-07T05:15:07;100534.22;;;6.20;93.32
72262;BME280;60173;52.112;8.648;2023-04-07T05:17:34;100539.63;;;6.20;92.67
72262;BME280;60173;52.112;8.648;2023-04-07T05:20:00;100540.16;;;6.17;92.49
72262;BME280;60173;52.112;8.648;2023-04-07T05:22:27;100540.69;;;6.19;92.37
72262;BME280;60173;52.112;8.648;2023-04-07T05:24:53;100543.91;;;6.21;91.89
72262;BME280;60173;52.112;8.648;2023-04-07T05:27:19;100541.78;;;6.39;90.55
72262;BME280;60173;52.112;8.648;2023-04-07T05:29:46;100537.47;;;6.38;90.72
72262;BME280;60173;52.112;8.648;2023-04-07T05:32:12;100544.22;;;6.50;89.96
72262;BME280;60173;52.112;8.648;2023-04-07T05:34:38;100539.66;;;6.51;89.23
72262;BME280;60173;52.112;8.648;2023-04-07T05:37:05;100541.25;;;6.47;89.19
72262;BME280;60173;52.112;8.648;2023-04-07T05:39:31;100541.56;;;6.66;88.00
72262;BME280;60173;52.112;8.648;2023-04-07T05:41:57;100546.97;;;6.66;88.71
72262;BME280;60173;52.112;8.648;2023-04-07T05:44:24;100544.78;;;6.68;88.19
72262;BME280;60173;52.112;8.648;2023-04-07T05:46:50;100552.88;;;6.73;88.13
72262;BME280;60173;52.112;8.648;2023-04-07T05:49:16;100545.34;;;6.75;87.87
72262;BME280;60173;52.112;8.648;2023-04-07T05:51:45;100551.56;;;6.86;87.13
72262;BME280;60173;52.112;8.648;2023-04-07T05:54:14;100553.13;;;7.07;86.54
72262;BME280;60173;52.112;8.648;2023-04-07T05:56:40;100552.03;;;7.13;84.78
72262;BME280;60173;52.112;8.648;2023-04-07T05:59:06;100560.66;;;7.25;83.93
72262;BME280;60173;52.112;8.648;2023-04-07T06:01:33;100550.94;;;7.19;84.55
72262;BME280;60173;52.112;8.648;2023-04-07T06:03:59;100553.09;;;7.17;84.65
72262;BME280;60173;52.112;8.648;2023-04-07T06:06:26;100559.06;;;7.24;83.96
72262;BME280;60173;52.112;8.648;2023-04-07T06:08:52;100561.25;;;7.12;84.45
72262;BME280;60173;52.112;8.648;2023-04-07T06:11:18;100560.69;;;7.10;85.16
72262;BME280;60173;52.112;8.648;2023-04-07T06:13:44;100560.16;;;7.23;83.58
72262;BME280;60173;52.112;8.648;2023-04-07T06:16:11;100566.09;;;7.20;84.10
72262;BME280;60173;52.112;8.648;2023-04-07T06:18:37;100577.41;;;7.28;83.93
72262;BME280;60173;52.112;8.648;2023-04-07T06:21:04;100570.66;;;7.25;82.90
72262;BME280;60173;52.112;8.648;2023-04-07T06:23:30;100568.25;;;7.18;83.46
72262;BME280;60173;52.112;8.648;2023-04-07T06:25:57;100572.00;;;7.22;82.53
72262;BME280;60173;52.112;8.648;2023-04-07T06:28:23;100573.09;;;7.16;82.64
72262;BME280;60173;52.112;8.648;2023-04-07T06:30:50;100572.00;;;7.22;82.25
72262;BME280;60173;52.112;8.648;2023-04-07T06:33:16;100581.69;;;7.49;81.19
72262;BME280;60173;52.112;8.648;2023-04-07T06:35:43;100583.31;;;7.55;80.96
72262;BME280;60173;52.112;8.648;2023-04-07T06:38:09;100583.88;;;7.52;80.12
72262;BME280;60173;52.112;8.648;2023-04-07T06:40:35;100588.44;;;7.52;79.84
72262;BME280;60173;52.112;8.648;2023-04-07T06:43:02;100591.63;;;7.69;79.48
72262;BME280;60173;52.112;8.648;2023-04-07T06:45:28;100590.75;;;7.89;78.95
72262;BME280;60173;52.112;8.648;2023-04-07T06:47:54;100592.84;;;8.07;78.63
72262;BME280;60173;52.112;8.648;2023-04-07T06:50:21;100594.34;;;8.29;76.89
72262;BME280;60173;52.112;8.648;2023-04-07T06:52:47;100588.63;;;8.41;76.56
72262;BME280;60173;52.112;8.648;2023-04-07T06:55:13;100595.84;;;8.55;75.02
72262;BME280;60173;52.112;8.648;2023-04-07T06:57:40;100594.81;;;8.46;75.63
72262;BME280;60173;52.112;8.648;2023-04-07T07:00:07;100601.00;;;8.52;76.19
72262;BME280;60173;52.112;8.648;2023-04-07T07:02:33;100602.81;;;8.67;73.95
72262;BME280;60173;52.112;8.648;2023-04-07T07:05:00;100593.25;;;8.79;73.99
72262;BME280;60173;52.112;8.648;2023-04-07T07:07:26;100603.75;;;8.86;73.88
72262;BME280;60173;52.112;8.648;2023-04-07T07:09:53;100599.94;;;8.87;73.64
72262;BME280;60173;52.112;8.648;2023-04-07T07:12:19;100602.47;;;9.08;71.63
72262;BME280;60173;52.112;8.648;2023-04-07T07:14:45;100610.38;;;9.04;72.19
72262;BME280;60173;52.112;8.648;2023-04-07T07:17:12;100605.94;;;8.84;72.96
72262;BME280;60173;52.112;8.648;2023-04-07T07:19:38;100621.94;;;9.15;71.34
72262;BME280;60173;52.112;8.648;2023-04-07T07:22:04;100613.06;;;9.38;71.06
72262;BME280;60173;52.112;8.648;2023-04-07T07:24:31;100619.44;;;9.23;70.68
72262;BME280;60173;52.112;8.648;2023-04-07T07:26:57;100622.69;;;8.91;72.32
72262;BME280;60173;52.112;8.648;2023-04-07T07:29:23;100625.66;;;8.90;71.86
72262;BME280;60173;52.112;8.648;2023-04-07T07:31:50;100630.44;;;9.03;72.78
72262;BME280;60173;52.112;8.648;2023-04-07T07:34:16;100630.59;;;9.17;71.98
72262;BME280;60173;52.112;8.648;2023-04-07T07:36:43;100627.63;;;9.13;71.13
72262;BME280;60173;52.112;8.648;2023-04-07T07:39:09;100634.69;;;9.43;69.83
72262;BME280;60173;52.112;8.648;2023-04-07T07:41:35;100628.25;;;9.34;70.16
72262;BME280;60173;52.112;8.648;2023-04-07T07:44:02;100633.78;;;9.24;70.35
72262;BME280;60173;52.112;8.648;2023-04-07T07:46:28;100631.84;;;9.30;70.35
72262;BME280;60173;52.112;8.648;2023-04-07T07:48:54;100641.66;;;9.55;69.41
72262;BME280;60173;52.112;8.648;2023-04-07T07:51:21;100628.88;;;9.55;68.80
72262;BME280;60173;52.112;8.648;2023-04-07T07:53:47;100638.19;;;9.73;68.92
72262;BME280;60173;52.112;8.648;2023-04-07T07:56:14;100638.00;;;9.88;67.97
72262;BME280;60173;52.112;8.648;2023-04-07T07:58:40;100642.13;;;10.10;67.91
72262;BME280;60173;52.112;8.648;2023-04-07T08:01:07;100648.50;;;10.19;67.92
72262;BME280;60173;52.112;8.648;2023-04-07T08:03:33;100645.50;;;10.21;67.03
72262;BME280;60173;52.112;8.648;2023-04-07T08:05:59;100647.75;;;10.37;67.30
72262;BME280;60173;52.112;8.648;2023-04-07T08:08:26;100654.56;;;10.11;67.62
72262;BME280;60173;52.112;8.648;2023-04-07T08:10:52;100655.47;;;10.30;68.01
72262;BME280;60173;52.112;8.648;2023-04-07T08:13:18;100654.56;;;10.35;66.26
72262;BME280;60173;52.112;8.648;2023-04-07T08:15:45;100662.81;;;10.49;65.11
72262;BME280;60173;52.112;8.648;2023-04-07T08:18:11;100656.53;;;10.53;64.43
72262;BME280;60173;52.112;8.648;2023-04-07T08:20:37;100662.91;;;10.62;64.92
72262;BME280;60173;52.112;8.648;2023-04-07T08:23:04;100659.44;;;10.57;64.38
72262;BME280;60173;52.112;8.648;2023-04-07T08:25:30;100666.69;;;10.43;64.42
72262;BME280;60173;52.112;8.648;2023-04-07T08:27:56;100667.94;;;10.26;63.70
72262;BME280;60173;52.112;8.648;2023-04-07T08:30:23;100659.88;;;10.21;64.81
72262;BME280;60173;52.112;8.648;2023-04-07T08:32:49;100669.88;;;10.26;63.66
72262;BME280;60173;52.112;8.648;2023-04-07T08:35:16;100660.69;;;9.98;61.90
72262;BME280;60173;52.112;8.648;2023-04-07T08:37:42;100666.75;;;10.37;61.89
72262;BME280;60173;52.112;8.648;2023-04-07T08:40:09;100665.22;;;11.07;60.64
72262;BME280;60173;52.112;8.648;2023-04-07T08:42:40;100670.75;;;11.35;60.37
72262;BME280;60173;52.112;8.648;2023-04-07T08:45:07;100662.78;;;11.57;60.00
72262;BME280;60173;52.112;8.648;2023-04-07T08:47:35;100667.47;;;11.98;59.20
72262;BME280;60173;52.112;8.648;2023-04-07T08:50:04;100664.25;;;11.96;58.48
72262;BME280;60173;52.112;8.648;2023-04-07T08:55:00;100679.00;;;11.29;60.38
72262;BME280;60173;52.112;8.648;2023-04-07T08:57:29;100679.53;;;11.13;58.54
72262;BME280;60173;52.112;8.648;2023-04-07T08:59:57;100672.53;;;11.58;58.03
72262;BME280;60173;52.112;8.648;2023-04-07T09:02:24;100670.59;;;11.12;59.83
72262;BME280;60173;52.112;8.648;2023-04-07T09:04:50;100675.50;;;11.10;60.15
72262;BME280;60173;52.112;8.648;2023-04-07T09:07:17;100675.97;;;11.31;59.73
72262;BME280;60173;52.112;8.648;2023-04-07T09:09:43;100674.75;;;11.23;58.89
72262;BME280;60173;52.112;8.648;2023-04-07T09:12:10;100672.44;;;11.30;58.92
72262;BME280;60173;52.112;8.648;2023-04-07T09:14:36;100672.72;;;11.62;58.24
72262;BME280;60173;52.112;8.648;2023-04-07T09:17:03;100682.13;;;11.37;57.75
72262;BME280;60173;52.112;8.648;2023-04-07T09:19:29;100682.22;;;11.64;57.92
72262;BME280;60173;52.112;8.648;2023-04-07T09:21:55;100686.44;;;11.70;58.70
72262;BME280;60173;52.112;8.648;2023-04-07T09:24:26;100678.13;;;11.81;57.07
72262;BME280;60173;52.112;8.648;2023-04-07T09:27:13;100676.69;;;11.69;58.11
72262;BME280;60173;52.112;8.648;2023-04-07T09:29:43;100686.44;;;11.70;58.50
72262;BME280;60173;52.112;8.648;2023-04-07T09:32:11;100696.84;;;11.36;58.85
72262;BME280;60173;52.112;8.648;2023-04-07T09:34:39;100688.22;;;11.15;58.45
72262;BME280;60173;52.112;8.648;2023-04-07T09:37:07;100692.72;;;11.38;58.61
72262;BME280;60173;52.112;8.648;2023-04-07T09:39:48;100664.16;;;11.68;58.04
72262;BME280;60173;52.112;8.648;2023-04-07T09:42:14;100676.78;;;11.78;58.18
72262;BME280;60173;52.112;8.648;2023-04-07T09:44:41;100681.63;;;11.67;55.45
72262;BME280;60173;52.112;8.648;2023-04-07T09:47:07;100676.72;;;11.83;57.47
72262;BME280;60173;52.112;8.648;2023-04-07T09:49:47;100685.75;;;11.79;57.64
72262;BME280;60173;52.112;8.648;2023-04-07T09:52:14;100682.91;;;11.56;57.24
72262;BME280;60173;52.112;8.648;2023-04-07T09:54:40;100683.94;;;11.60;57.69
72262;BME280;60173;52.112;8.648;2023-04-07T09:57:09;100683.03;;;11.32;56.26
72262;BME280;60173;52.112;8.648;2023-04-07T09:59:38;100683.28;;;11.49;57.20
72262;BME280;60173;52.112;8.648;2023-04-07T10:02:06;100680.50;;;11.54;56.86
72262;BME280;60173;52.112;8.648;2023-04-07T10:04:32;100679.66;;;11.54;55.84
72262;BME280;60173;52.112;8.648;2023-04-07T10:06:59;100681.63;;;11.67;56.51
72262;BME280;60173;52.112;8.648;2023-04-07T10:09:26;100676.69;;;11.69;54.95
72262;BME280;60173;52.112;8.648;2023-04-07T10:11:54;100685.22;;;12.09;55.69
72262;BME280;60173;52.112;8.648;2023-04-07T10:14:22;100669.09;;;12.27;54.24
72262;BME280;60173;52.112;8.648;2023-04-07T10:16:51;100681.47;;;12.19;51.68
72262;BME280;60173;52.112;8.648;2023-04-07T10:19:18;100685.63;;;12.16;52.98
72262;BME280;60173;52.112;8.648;2023-04-07T10:21:46;100683.16;;;12.42;51.59
72262;BME280;60173;52.112;8.648;2023-04-07T10:26:52;100687.81;;;12.42;51.83
72262;BME280;60173;52.112;8.648;2023-04-07T10:29:19;100686.88;;;12.47;52.35
72262;BME280;60173;52.112;8.648;2023-04-07T10:31:47;100688.78;;;12.60;54.21
72262;BME280;60173;52.112;8.648;2023-04-07T10:34:13;100686.97;;;12.55;51.70
72262;BME280;60173;52.112;8.648;2023-04-07T10:37:10;100690.03;;;12.40;49.70
72262;BME280;60173;52.112;8.648;2023-04-07T10:39:36;100692.81;;;12.62;51.57
72262;BME280;60173;52.112;8.648;2023-04-07T10:42:03;100688.88;;;12.69;51.44
72262;BME280;60173;52.112;8.648;2023-04-07T10:47:04;100684.44;;;12.95;49.80
72262;BME280;60173;52.112;8.648;2023-04-07T10:49:32;100696.91;;;13.10;48.74
72262;BME280;60173;52.112;8.648;2023-04-07T10:54:38;100688.00;;;12.59;49.11
72262;BME280;60173;52.112;8.648;2023-04-07T10:59:32;100694.84;;;12.57;49.48
72262;BME280;60173;52.112;8.648;2023-04-07T11:04:39;100696.38;;;12.49;48.92
72262;BME280;60173;52.112;8.648;2023-04-07T11:07:06;100694.88;;;12.43;48.43
72262;BME280;60173;52.112;8.648;2023-04-07T11:09:32;100695.03;;;12.74;47.97
72262;BME280;60173;52.112;8.648;2023-04-07T11:11:59;100696.84;;;12.79;48.35
72262;BME280;60173;52.112;8.648;2023-04-07T11:14:26;100698.34;;;12.85;46.58
72262;BME280;60173;52.112;8.648;2023-04-07T11:16:53;100693.19;;;12.70;48.84
72262;BME280;60173;52.112;8.648;2023-04-07T11:19:19;100695.63;;;12.71;47.34
72262;BME280;60173;52.112;8.648;2023-04-07T11:21:45;100704.59;;;12.85;49.51
72262;BME280;60173;52.112;8.648;2023-04-07T11:24:34;100696.47;;;12.94;49.19
72262;BME280;60173;52.112;8.648;2023-04-07T11:27:00;100708.00;;;13.27;47.96
72262;BME280;60173;52.112;8.648;2023-04-07T11:29:30;100698.63;;;13.20;47.96
72262;BME280;60173;52.112;8.648;2023-04-07T11:31:58;100704.47;;;13.13;47.01
72262;BME280;60173;52.112;8.648;2023-04-07T11:34:35;100706.06;;;12.92;47.28
72262;BME280;60173;52.112;8.648;2023-04-07T11:37:22;100702.66;;;12.86;45.91
72262;BME280;60173;52.112;8.648;2023-04-07T11:39:58;100702.66;;;12.86;46.82
72262;BME280;60173;52.112;8.648;2023-04-07T11:42:51;100703.91;;;12.80;45.99
72262;BME280;60173;52.112;8.648;2023-04-07T11:45:18;100704.47;;;13.13;46.43
72262;BME280;60173;52.112;8.648;2023-04-07T11:47:44;100707.53;;;13.56;46.36
72262;BME280;60173;52.112;8.648;2023-04-07T11:50:10;100705.75;;;13.29;44.50
72262;BME280;60173;52.112;8.648;2023-04-07T11:52:43;100710.00;;;13.22;45.61
72262;BME280;60173;52.112;8.648;2023-04-07T11:55:20;100703.22;;;13.55;45.65
72262;BME280;60173;52.112;8.648;2023-04-07T11:57:47;100692.25;;;13.78;44.55
72262;BME280;60173;52.112;8.648;2023-04-07T12:00:14;100696.97;;;13.86;44.36
72262;BME280;60173;52.112;8.648;2023-04-07T12:02:40;100702.50;;;14.04;41.70
72262;BME280;60173;52.112;8.648;2023-04-07T12:05:07;100706.53;;;14.55;41.50
72262;BME280;60173;52.112;8.648;2023-04-07T12:07:37;100699.66;;;14.83;42.46
72262;BME280;60173;52.112;8.648;2023-04-07T12:10:23;100700.44;;;14.75;43.92
72262;BME280;60173;52.112;8.648;2023-04-07T12:12:49;100701.75;;;14.86;40.02
72262;BME280;60173;52.112;8.648;2023-04-07T12:15:16;100713.53;;;15.04;40.66
72262;BME280;60173;52.112;8.648;2023-04-07T12:17:46;100717.84;;;15.14;41.73
72262;BME280;60173;52.112;8.648;2023-04-07T12:20:14;100718.59;;;14.54;42.62
72262;BME280;60173;52.112;8.648;2023-04-07T12:22:41;100717.59;;;13.70;44.18
72262;BME280;60173;52.112;8.648;2023-04-07T12:25:07;100707.56;;;13.88;43.54
72262;BME280;60173;52.112;8.648;2023-04-07T12:27:34;100713.81;;;14.28;42.88
72262;BME280;60173;52.112;8.648;2023-04-07T12:30:09;100714.94;;;14.84;44.99
72262;BME280;60173;52.112;8.648;2023-04-07T12:32:35;100711.09;;;15.11;40.49
72262;BME280;60173;52.112;8.648;2023-04-07T12:35:02;100714.97;;;15.19;41.57
72262;BME280;60173;52.112;8.648;2023-04-07T12:37:29;100712.22;;;14.76;39.37
72262;BME280;60173;52.112;8.648;2023-04-07T12:39:55;100723.09;;;14.10;39.58
72262;BME280;60173;52.112;8.648;2023-04-07T12:42:21;100718.22;;;13.44;39.67
72262;BME280;60173;52.112;8.648;2023-04-07T12:44:48;100723.88;;;13.79;43.98
72262;BME280;60173;52.112;8.648;2023-04-07T12:47:14;100722.72;;;14.42;40.90
72262;BME280;60173;52.112;8.648;2023-04-07T12:49:40;100731.88;;;14.38;42.38
72262;BME280;60173;52.112;8.648;2023-04-07T12:52:07;100731.28;;;14.10;42.34
72262;BME280;60173;52.112;8.648;2023-04-07T12:54:33;100726.06;;;13.99;42.57
72262;BME280;60173;52.112;8.648;2023-04-07T12:56:59;100735.31;;;13.81;43.40
72262;BME280;60173;52.112;8.648;2023-04-07T12:59:26;100733.03;;;13.74;41.68
72262;BME280;60173;52.112;8.648;2023-04-07T13:01:52;100725.16;;;13.50;42.14
72262;BME280;60173;52.112;8.648;2023-04-07T13:04:19;100726.63;;;13.56;42.98
72262;BME280;60173;52.112;8.648;2023-04-07T13:06:45;100719.69;;;13.73;42.62
72262;BME280;60173;52.112;8.648;2023-04-07T13:09:12;100721.38;;;13.91;44.42
72262;BME280;60173;52.112;8.648;2023-04-07T13:11:38;100722.44;;;14.13;44.23
72262;BME280;60173;52.112;8.648;2023-04-07T13:14:04;100714.16;;;14.27;42.99